createdAt,value
2023-04-05T00:00:32.540Z,18.55
2023-04-05T00:03:00.312Z,17.77
2023-04-05T00:05:31.565Z,18.95
2023-04-05T00:08:00.695Z,17.13
2023-04-05T00:10:28.766Z,19.00
2023-04-05T00:12:55.848Z,17.15
2023-04-05T00:15:23.084Z,17.02
2023-04-05T00:17:50.791Z,16.45
2023-04-05T00:20:17.645Z,16.58
2023-04-05T00:22:44.961Z,15.93
2023-04-05T00:25:12.295Z,16.15
2023-04-05T00:27:39.879Z,15.88
2023-04-05T00:30:07.380Z,15.20
2023-04-05T00:32:34.545Z,18.27
2023-04-05T00:35:01.524Z,15.75
2023-04-05T00:37:29.804Z,14.80
2023-04-05T00:39:57.610Z,15.90
2023-04-05T00:42:24.642Z,16.83
2023-04-05T00:44:51.561Z,16.42
2023-04-05T00:47:18.644Z,13.90
2023-04-05T00:49:46.382Z,15.10
2023-04-05T00:52:15.133Z,15.57
2023-04-05T00:54:43.438Z,14.15
2023-04-05T00:57:11.147Z,15.63
2023-04-05T00:59:38.093Z,13.57
2023-04-05T01:02:17.210Z,13.52
2023-04-05T01:04:50.203Z,11.98
2023-04-05T01:07:31.580Z,12.20
2023-04-05T01:10:01.269Z,11.30
2023-04-05T01:12:34.957Z,11.23
2023-04-05T01:15:04.731Z,10.95
2023-04-05T01:17:36.958Z,10.43
2023-04-05T01:20:10.919Z,10.88
2023-04-05T01:23:11.506Z,11.45
2023-04-05T01:25:54.084Z,11.25
2023-04-05T01:28:52.719Z,9.98
2023-04-05T01:31:26.168Z,10.40
2023-04-05T01:34:20.215Z,10.20
2023-04-05T01:36:56.159Z,10.75
2023-04-05T01:39:24.970Z,9.48
2023-04-05T01:41:51.986Z,9.45
2023-04-05T01:44:18.848Z,9.57
2023-04-05T01:46:47.028Z,9.57
2023-04-05T01:49:13.880Z,9.00
2023-04-05T01:51:42.196Z,10.02
2023-04-05T01:54:09.529Z,10.10
2023-04-05T01:56:36.699Z,9.82
2023-04-05T01:59:04.255Z,9.13
2023-04-05T02:01:32.165Z,9.68
2023-04-05T02:03:59.302Z,10.30
2023-04-05T02:06:26.701Z,10.48
2023-04-05T02:08:53.643Z,11.23
2023-04-05T02:11:21.224Z,10.10
2023-04-05T02:13:48.233Z,9.30
2023-04-05T02:16:16.718Z,11.77
2023-04-05T02:18:51.048Z,10.30
2023-04-05T02:21:18.293Z,10.63
2023-04-05T02:23:45.177Z,11.70
2023-04-05T02:26:12.173Z,10.35
2023-04-05T02:28:39.113Z,8.55
2023-04-05T02:31:14.276Z,9.77
2023-04-05T02:33:42.616Z,9.25
2023-04-05T02:36:11.787Z,9.55
2023-04-05T02:38:39.379Z,10.15
2023-04-05T02:41:09.937Z,11.38
2023-04-05T02:43:39.066Z,8.98
2023-04-05T02:46:06.502Z,9.75
2023-04-05T02:48:38.503Z,9.75
2023-04-05T02:51:06.245Z,10.20
2023-04-05T02:53:33.190Z,10.27
2023-04-05T02:56:03.531Z,12.77
2023-04-05T02:58:32.977Z,13.07
2023-04-05T03:01:06.089Z,10.23
2023-04-05T03:03:37.498Z,9.98
2023-04-05T03:06:13.410Z,10.52
2023-04-05T03:08:49.390Z,9.20
2023-04-05T03:11:24.734Z,8.45
2023-04-05T03:13:56.553Z,9.63
2023-04-05T03:16:44.849Z,9.18
2023-04-05T03:19:29.213Z,10.93
2023-04-05T03:22:07.988Z,13.18
2023-04-05T03:24:37.120Z,13.50
2023-04-05T03:27:07.800Z,10.32
2023-04-05T03:29:49.091Z,10.52
2023-04-05T03:32:18.104Z,11.02
2023-04-05T03:34:52.006Z,11.65
2023-04-05T03:37:20.973Z,8.52
2023-04-05T03:39:58.085Z,12.73
2023-04-05T03:42:25.386Z,11.13
2023-04-05T03:44:54.108Z,13.55
2023-04-05T03:47:21.089Z,9.85
2023-04-05T03:49:48.235Z,10.43
2023-04-05T03:52:15.253Z,9.60
2023-04-05T03:54:45.063Z,11.02
2023-04-05T03:57:14.201Z,11.80
2023-04-05T03:59:42.776Z,11.63
2023-04-05T04:02:09.971Z,10.63
2023-04-05T04:04:37.085Z,11.10
2023-04-05T04:07:03.950Z,11.55
2023-04-05T04:09:31.214Z,10.63
2023-04-05T04:12:05.711Z,12.02
2023-04-05T04:14:35.446Z,11.80
2023-04-05T04:17:30.216Z,11.27
2023-04-05T04:20:26.557Z,11.55
2023-04-05T04:23:14.566Z,10.88
2023-04-05T04:26:03.103Z,11.20
2023-04-05T04:28:49.082Z,12.75
2023-04-05T04:31:18.973Z,10.73
2023-04-05T04:34:06.894Z,12.07
2023-04-05T04:36:46.739Z,10.80
2023-04-05T04:39:36.170Z,11.65
2023-04-05T04:42:38.916Z,10.65
2023-04-05T04:45:10.815Z,10.57
2023-04-05T04:47:47.452Z,8.90
2023-04-05T04:50:24.681Z,8.93
2023-04-05T04:52:51.673Z,10.73
2023-04-05T04:55:25.220Z,10.07
2023-04-05T04:57:53.654Z,10.32
2023-04-05T05:00:22.277Z,10.70
2023-04-05T05:02:51.141Z,10.57
2023-04-05T05:05:23.240Z,9.20
2023-04-05T05:07:50.802Z,12.18
2023-04-05T05:10:18.975Z,7.70
2023-04-05T05:12:46.824Z,7.70
2023-04-05T05:17:42.219Z,7.38
2023-04-05T05:20:12.755Z,5.35
2023-04-05T05:22:46.587Z,5.38
2023-04-05T05:25:13.491Z,7.18
2023-04-05T05:27:41.420Z,5.72
2023-04-05T05:30:09.379Z,4.35
2023-04-05T05:32:36.397Z,5.00
2023-04-05T05:35:03.544Z,6.70
2023-04-05T05:37:34.096Z,4.35
2023-04-05T05:40:01.083Z,6.22
2023-04-05T05:42:28.311Z,6.88
2023-04-05T05:44:55.609Z,5.60
2023-04-05T05:47:22.453Z,5.68
2023-04-05T05:49:52.208Z,6.70
2023-04-05T05:52:19.318Z,6.88
2023-04-05T05:54:47.308Z,5.78
2023-04-05T05:57:14.382Z,4.45
2023-04-05T05:59:41.836Z,6.63
2023-04-05T06:02:10.014Z,5.93
2023-04-05T06:04:38.088Z,6.55
2023-04-05T06:07:05.218Z,5.93
2023-04-05T06:09:35.312Z,5.35
2023-04-05T06:12:02.997Z,5.95
2023-04-05T06:14:30.095Z,5.38
2023-04-05T06:16:57.650Z,5.78
2023-04-05T06:19:24.531Z,5.68
2023-04-05T06:21:51.552Z,5.47
2023-04-05T06:24:18.380Z,5.75
2023-04-05T06:26:45.472Z,3.70
2023-04-05T06:29:12.361Z,4.50
2023-04-05T06:31:41.662Z,5.03
2023-04-05T06:36:36.057Z,4.53
2023-04-05T06:39:03.213Z,4.93
2023-04-05T06:41:30.795Z,5.30
2023-04-05T06:43:57.638Z,7.13
2023-04-05T06:46:25.297Z,4.10
2023-04-05T06:48:52.864Z,5.18
2023-04-05T06:51:20.181Z,9.15
2023-04-05T06:53:47.169Z,5.72
2023-04-05T06:56:14.041Z,4.88
2023-04-05T06:58:41.903Z,7.15
2023-04-05T07:01:08.869Z,4.18
2023-04-05T07:03:36.274Z,4.57
2023-04-05T07:06:04.353Z,3.30
2023-04-05T07:08:33.096Z,3.20
2023-04-05T07:11:00.157Z,3.47
2023-04-05T07:13:27.456Z,3.22
2023-04-05T07:16:01.161Z,6.35
2023-04-05T07:18:30.167Z,7.28
2023-04-05T07:21:02.233Z,4.65
2023-04-05T07:23:30.798Z,8.93
2023-04-05T07:26:05.255Z,6.68
2023-04-05T07:28:33.242Z,3.90
2023-04-05T07:31:00.184Z,8.13
2023-04-05T07:33:28.018Z,7.40
2023-04-05T07:35:55.768Z,7.07
2023-04-05T07:38:23.586Z,6.38
2023-04-05T07:40:50.932Z,9.07
2023-04-05T07:43:21.280Z,6.57
2023-04-05T07:45:48.379Z,6.47
2023-04-05T07:48:15.556Z,5.88
2023-04-05T07:50:47.917Z,4.13
2023-04-05T07:53:16.710Z,4.47
2023-04-05T07:55:44.192Z,5.32
2023-04-05T07:58:11.326Z,5.18
2023-04-05T08:00:38.954Z,4.70
2023-04-05T08:03:06.826Z,4.75
2023-04-05T08:05:33.832Z,4.15
2023-04-05T08:08:01.743Z,7.35
2023-04-05T08:10:28.709Z,10.13
2023-04-05T08:12:55.818Z,3.90
2023-04-05T08:15:22.780Z,5.28
2023-04-05T08:17:49.893Z,7.10
2023-04-05T08:20:17.022Z,6.20
2023-04-05T08:22:44.262Z,4.60
2023-04-05T08:25:13.695Z,4.20
2023-04-05T08:27:41.379Z,6.25
2023-04-05T08:30:09.297Z,2.92
2023-04-05T08:32:36.593Z,3.92
2023-04-05T08:35:03.849Z,5.40
2023-04-05T08:37:34.872Z,7.32
2023-04-05T08:40:03.221Z,5.32
2023-04-05T08:42:36.515Z,4.93
2023-04-05T08:45:04.886Z,6.05
2023-04-05T08:47:34.996Z,6.57
2023-04-05T08:50:03.106Z,4.15
2023-04-05T08:52:32.502Z,4.70
2023-04-05T08:54:59.611Z,5.70
2023-04-05T08:57:31.008Z,7.18
2023-04-05T09:00:01.970Z,4.30
2023-04-05T09:02:32.902Z,9.07
2023-04-05T09:05:00.365Z,3.83
2023-04-05T09:07:30.431Z,3.88
2023-04-05T09:10:00.669Z,5.68
2023-04-05T09:12:28.439Z,4.32
2023-04-05T09:14:56.110Z,4.82
2023-04-05T09:17:23.088Z,6.13
2023-04-05T09:19:50.536Z,3.83
2023-04-05T09:22:20.442Z,4.57
2023-04-05T09:24:47.912Z,4.13
2023-04-05T09:27:19.935Z,8.55
2023-04-05T09:29:57.880Z,5.43
2023-04-05T09:32:27.796Z,5.80
2023-04-05T09:34:55.642Z,5.15
2023-04-05T09:37:33.973Z,4.65
2023-04-05T09:40:06.854Z,3.72
2023-04-05T09:42:46.106Z,6.30
2023-04-05T09:45:14.982Z,5.10
2023-04-05T09:47:57.489Z,5.13
2023-04-05T09:50:24.952Z,6.10
2023-04-05T09:53:09.468Z,6.00
2023-04-05T09:55:37.063Z,4.30
2023-04-05T09:58:04.104Z,4.50
2023-04-05T10:00:34.281Z,6.00
2023-04-05T10:03:21.070Z,4.60
2023-04-05T10:05:56.069Z,7.07
2023-04-05T10:08:24.485Z,8.15
2023-04-05T10:10:54.729Z,8.60
2023-04-05T10:13:22.321Z,8.75
2023-04-05T10:15:51.338Z,7.70
2023-04-05T10:18:25.275Z,10.27
2023-04-05T10:20:54.234Z,6.57
2023-04-05T10:23:35.060Z,7.88
2023-04-05T10:26:11.286Z,12.63
2023-04-05T10:28:47.487Z,8.35
2023-04-05T10:31:37.116Z,8.13
2023-04-05T10:34:09.360Z,8.02
2023-04-05T10:36:59.880Z,8.98
2023-04-05T10:39:35.358Z,10.32
2023-04-05T10:42:34.992Z,9.27
2023-04-05T10:45:10.075Z,8.45
2023-04-05T10:47:47.669Z,12.43
2023-04-05T10:50:21.599Z,8.75
2023-04-05T10:52:49.137Z,7.90
2023-04-05T10:55:17.318Z,8.05
2023-04-05T10:57:46.266Z,10.60
2023-04-05T11:00:14.690Z,8.32
2023-04-05T11:02:42.710Z,8.38
2023-04-05T11:05:31.452Z,8.90
2023-04-05T11:08:04.904Z,8.68
2023-04-05T11:10:37.676Z,10.45
2023-04-05T11:13:07.388Z,9.40
2023-04-05T11:15:35.393Z,7.43
2023-04-05T11:18:20.748Z,8.38
2023-04-05T11:20:48.911Z,9.68
2023-04-05T11:23:18.874Z,7.95
2023-04-05T11:25:59.889Z,9.45
2023-04-05T11:28:37.338Z,9.48
2023-04-05T11:31:19.112Z,10.02
2023-04-05T11:33:55.064Z,12.18
2023-04-05T11:36:50.494Z,9.27
2023-04-05T11:39:21.352Z,7.45
2023-04-05T11:42:02.140Z,9.18
2023-04-05T11:44:39.334Z,8.85
2023-04-05T11:47:06.907Z,8.15
2023-04-05T11:49:34.462Z,9.00
2023-04-05T11:52:11.953Z,9.27
2023-04-05T11:54:39.928Z,7.13
2023-04-05T11:57:13.017Z,7.93
2023-04-05T11:59:39.953Z,10.20
2023-04-05T12:02:08.364Z,9.07
2023-04-05T12:04:36.669Z,8.73
2023-04-05T12:07:11.844Z,9.27
2023-04-05T12:10:01.590Z,9.30
2023-04-05T12:12:34.288Z,8.48
2023-04-05T12:15:03.559Z,10.00
2023-04-05T12:17:47.180Z,8.77
2023-04-05T12:20:23.921Z,9.85
2023-04-05T12:22:53.378Z,8.60
2023-04-05T12:27:47.967Z,10.57
2023-04-05T12:30:16.702Z,11.35
2023-04-05T12:32:50.452Z,9.63
2023-04-05T12:35:18.957Z,9.10
2023-04-05T12:37:46.967Z,10.00
2023-04-05T12:40:14.445Z,12.60
2023-04-05T12:42:41.820Z,11.77
2023-04-05T12:45:13.334Z,10.35
2023-04-05T12:47:51.000Z,11.45
2023-04-05T12:50:19.769Z,10.15
2023-04-05T12:53:23.771Z,11.60
2023-04-05T12:56:01.722Z,11.50
2023-04-05T12:58:36.819Z,11.00
2023-04-05T13:01:04.610Z,11.63
2023-04-05T13:03:31.864Z,10.88
2023-04-05T13:05:58.952Z,12.98
2023-04-05T13:08:27.727Z,11.18
2023-04-05T13:10:57.191Z,10.73
2023-04-05T13:13:25.579Z,10.40
2023-04-05T13:15:52.682Z,11.90
2023-04-05T13:18:20.681Z,12.15
2023-04-05T13:20:47.808Z,10.63
2023-04-05T13:23:15.090Z,10.75
2023-04-05T13:25:45.600Z,10.70
2023-04-05T13:28:13.752Z,10.75
2023-04-05T13:30:40.915Z,12.63
2023-04-05T13:33:07.828Z,12.10
2023-04-05T13:35:34.999Z,10.63
2023-04-05T13:38:04.321Z,12.38
2023-04-05T13:40:32.297Z,11.15
2023-04-05T13:42:59.415Z,11.50
2023-04-05T13:45:26.320Z,11.45
2023-04-05T13:47:53.519Z,13.15
2023-04-05T13:50:20.653Z,10.30
2023-04-05T13:52:47.592Z,11.60
2023-04-05T13:55:15.589Z,13.50
2023-04-05T13:57:42.651Z,13.23
2023-04-05T14:00:10.334Z,12.40
2023-04-05T14:02:41.192Z,10.82
2023-04-05T14:05:09.046Z,12.15
2023-04-05T14:07:36.925Z,11.38
2023-04-05T14:10:06.352Z,11.95
2023-04-05T14:15:01.015Z,10.98
2023-04-05T14:17:28.296Z,12.27
2023-04-05T14:19:55.470Z,11.65
2023-04-05T14:22:22.514Z,11.68
2023-04-05T14:24:49.807Z,10.50
2023-04-05T14:27:16.818Z,11.23
2023-04-05T14:29:45.890Z,14.85
2023-04-05T14:32:13.214Z,10.48
2023-04-05T14:34:40.284Z,12.15
2023-04-05T14:37:08.055Z,12.85
2023-04-05T14:39:35.041Z,11.13
2023-04-05T14:42:05.228Z,14.82
2023-04-05T14:44:32.670Z,13.13
2023-04-05T14:46:59.712Z,16.98
2023-04-05T14:49:26.833Z,16.05
2023-04-05T14:51:53.722Z,13.77
2023-04-05T14:54:20.943Z,14.82
2023-04-05T14:56:48.203Z,14.90
2023-04-05T14:59:15.534Z,15.05
2023-04-05T15:01:44.470Z,14.18
2023-04-05T15:04:12.021Z,17.13
2023-04-05T15:06:39.062Z,13.65
2023-04-05T15:09:06.076Z,13.52
2023-04-05T15:11:35.784Z,13.45
2023-04-05T15:14:02.849Z,13.25
2023-04-05T15:16:30.645Z,15.57
2023-04-05T15:18:59.320Z,14.32
2023-04-05T15:21:26.725Z,16.65
2023-04-05T15:23:53.733Z,16.50
2023-04-05T15:26:21.637Z,14.55
2023-04-05T15:28:48.753Z,15.27
2023-04-05T15:31:16.080Z,15.35
2023-04-05T15:33:43.279Z,16.08
2023-04-05T15:36:10.580Z,17.23
2023-04-05T15:38:37.810Z,16.00
2023-04-05T15:41:05.093Z,15.13
2023-04-05T15:43:33.755Z,15.73
2023-04-05T15:46:00.990Z,14.23
2023-04-05T15:48:28.087Z,19.13
2023-04-05T15:50:55.168Z,16.88
2023-04-05T15:53:22.225Z,17.88
2023-04-05T15:55:49.492Z,16.58
2023-04-05T15:58:16.445Z,18.27
2023-04-05T16:00:43.908Z,17.17
2023-04-05T16:03:11.844Z,17.20
2023-04-05T16:05:39.048Z,15.38
2023-04-05T16:08:06.599Z,16.48
2023-04-05T16:10:33.513Z,18.58
2023-04-05T16:13:00.720Z,15.15
2023-04-05T16:15:28.719Z,17.42
2023-04-05T16:17:56.284Z,15.10
2023-04-05T16:20:23.766Z,14.98
2023-04-05T16:22:52.227Z,15.75
2023-04-05T16:25:19.601Z,15.20
2023-04-05T16:27:46.464Z,14.65
2023-04-05T16:30:13.737Z,23.33
2023-04-05T16:32:41.041Z,15.77
2023-04-05T16:35:08.492Z,16.60
2023-04-05T16:37:35.532Z,15.93
2023-04-05T16:40:04.495Z,16.13
2023-04-05T16:42:31.640Z,16.45
2023-04-05T16:44:59.023Z,17.23
2023-04-05T16:47:26.233Z,15.77
2023-04-05T16:49:53.629Z,17.25
2023-04-05T16:52:22.258Z,16.75
2023-04-05T16:54:49.502Z,17.08
2023-04-05T16:57:16.545Z,16.33
2023-04-05T16:59:43.775Z,15.15
2023-04-05T17:02:10.990Z,15.38
2023-04-05T17:04:38.211Z,17.77
2023-04-05T17:07:05.868Z,17.65
2023-04-05T17:09:33.513Z,20.00
2023-04-05T17:12:02.028Z,19.00
2023-04-05T17:14:29.337Z,18.20
2023-04-05T17:16:56.908Z,19.42
2023-04-05T17:19:23.799Z,18.50
2023-04-05T17:21:51.524Z,22.50
2023-04-05T17:24:21.585Z,24.60
2023-04-05T17:26:48.726Z,19.67
2023-04-05T17:29:17.654Z,21.95
2023-04-05T17:31:45.172Z,18.30
2023-04-05T17:34:14.999Z,19.58
2023-04-05T17:36:43.744Z,19.30
2023-04-05T17:39:13.714Z,21.63
2023-04-05T17:41:40.998Z,18.70
2023-04-05T17:44:08.551Z,22.20
2023-04-05T17:46:42.672Z,19.98
2023-04-05T17:49:11.939Z,20.17
2023-04-05T17:51:39.171Z,22.95
2023-04-05T17:54:09.124Z,21.58
2023-04-05T17:56:36.469Z,20.48
2023-04-05T17:59:04.297Z,22.13
2023-04-05T18:01:32.104Z,24.65
2023-04-05T18:03:59.781Z,25.23
2023-04-05T18:06:27.616Z,19.20
2023-04-05T18:08:54.826Z,20.55
2023-04-05T18:11:21.982Z,21.90
2023-04-05T18:13:49.011Z,19.20
2023-04-05T18:16:16.160Z,18.75
2023-04-05T18:18:43.062Z,21.00
2023-04-05T18:21:10.256Z,19.15
2023-04-05T18:23:37.083Z,20.73
2023-04-05T18:26:08.044Z,22.98
2023-04-05T18:28:36.775Z,18.50
2023-04-05T18:31:03.790Z,17.65
2023-04-05T18:33:31.373Z,19.05
2023-04-05T18:35:58.488Z,18.40
2023-04-05T18:38:26.591Z,18.40
2023-04-05T18:41:02.013Z,16.67
2023-04-05T18:43:29.871Z,17.92
2023-04-05T18:45:57.226Z,17.88
2023-04-05T18:48:25.231Z,18.85
2023-04-05T18:50:54.089Z,17.92
2023-04-05T18:53:22.390Z,16.83
2023-04-05T18:55:53.553Z,17.30
2023-04-05T18:58:20.965Z,17.27
2023-04-05T19:00:47.993Z,17.13
2023-04-05T19:03:16.359Z,18.23
2023-04-05T19:05:49.594Z,19.53
2023-04-05T19:08:18.880Z,16.05
2023-04-05T19:10:45.938Z,18.15
2023-04-05T19:13:13.444Z,18.23
2023-04-05T19:15:40.724Z,20.30
2023-04-05T19:18:08.059Z,17.48
2023-04-05T19:20:35.143Z,18.83
2023-04-05T19:23:02.266Z,16.55
2023-04-05T19:25:29.302Z,19.58
2023-04-05T19:27:56.569Z,19.15
2023-04-05T19:30:23.915Z,17.30
2023-04-05T19:32:53.850Z,18.90
2023-04-05T19:35:21.016Z,22.40
2023-04-05T19:40:32.710Z,19.60
2023-04-05T19:43:01.970Z,18.95
2023-04-05T19:45:30.592Z,17.33
2023-04-05T19:47:59.958Z,20.10
2023-04-05T19:53:08.211Z,22.27
2023-04-05T19:55:37.963Z,22.70
2023-04-05T19:58:10.485Z,28.48
2023-04-05T20:00:47.119Z,26.98
2023-04-05T20:03:27.606Z,28.25
2023-04-05T20:06:05.211Z,28.15
2023-04-05T20:08:34.638Z,24.10
2023-04-05T20:11:05.388Z,20.40
2023-04-05T20:13:34.293Z,20.05
2023-04-05T20:16:01.289Z,24.73
2023-04-05T20:18:29.135Z,22.13
2023-04-05T20:20:56.925Z,23.38
2023-04-05T20:23:27.350Z,23.20
2023-04-05T20:25:54.723Z,21.15
2023-04-05T20:28:34.629Z,19.92
2023-04-05T20:31:02.757Z,21.27
2023-04-05T20:33:48.125Z,20.38
2023-04-05T20:36:36.023Z,22.15
2023-04-05T20:39:06.852Z,20.67
2023-04-05T20:41:34.163Z,19.67
2023-04-05T20:44:01.254Z,17.23
2023-04-05T20:46:28.696Z,20.33
2023-04-05T20:51:25.927Z,18.88
2023-04-05T20:53:53.605Z,19.15
2023-04-05T20:56:20.973Z,21.65
2023-04-05T20:58:48.056Z,21.77
2023-04-05T21:01:15.773Z,22.30
2023-04-05T21:03:43.143Z,22.48
2023-04-05T21:06:11.899Z,19.23
2023-04-05T21:08:41.478Z,16.90
2023-04-05T21:11:10.753Z,18.77
2023-04-05T21:13:39.767Z,16.70
2023-04-05T21:16:07.373Z,17.55
2023-04-05T21:18:34.612Z,18.20
2023-04-05T21:21:01.527Z,19.27
2023-04-05T21:23:29.308Z,18.27
2023-04-05T21:25:57.617Z,19.35
2023-04-05T21:28:26.164Z,21.10
2023-04-05T21:30:53.612Z,18.00
2023-04-05T21:33:20.915Z,16.40
2023-04-05T21:35:48.350Z,19.65
2023-04-05T21:38:15.930Z,18.75
2023-04-05T21:40:44.716Z,18.58
2023-04-05T21:43:13.276Z,16.05
2023-04-05T21:45:40.438Z,17.27
2023-04-05T21:48:07.917Z,22.08
2023-04-05T21:50:35.127Z,18.25
2023-04-05T21:53:04.071Z,15.63
2023-04-05T21:55:31.161Z,12.60
2023-04-05T21:57:58.318Z,15.82
2023-04-05T22:00:25.331Z,13.75
2023-04-05T22:02:52.409Z,14.45
2023-04-05T22:05:33.981Z,13.93
2023-04-05T22:08:04.062Z,13.10
2023-04-05T22:10:31.182Z,13.02
2023-04-05T22:12:58.544Z,14.40
2023-04-05T22:15:25.852Z,12.63
2023-04-05T22:17:53.001Z,17.38
2023-04-05T22:20:20.178Z,16.38
2023-04-05T22:22:47.833Z,15.48
2023-04-05T22:25:14.986Z,16.05
2023-04-05T22:27:42.009Z,14.90
2023-04-05T22:30:09.524Z,12.10
2023-04-05T22:32:36.877Z,12.48
2023-04-05T22:35:04.485Z,14.32
2023-04-05T22:37:36.639Z,15.10
2023-04-05T22:40:04.825Z,12.60
2023-04-05T22:42:32.198Z,13.95
2023-04-05T22:44:59.534Z,12.23
2023-04-05T22:47:27.442Z,15.35
2023-04-05T22:49:54.863Z,14.25
2023-04-05T22:52:22.343Z,13.77
2023-04-05T22:54:49.232Z,15.82
2023-04-05T22:57:16.525Z,14.82
2023-04-05T22:59:43.612Z,15.25
2023-04-05T23:02:12.610Z,14.45
2023-04-05T23:04:39.887Z,10.63
2023-04-05T23:07:06.930Z,12.98
2023-04-05T23:09:34.440Z,14.00
2023-04-05T23:12:01.653Z,15.23
2023-04-05T23:14:31.432Z,19.05
2023-04-05T23:16:58.448Z,16.60
2023-04-05T23:19:25.644Z,19.58
2023-04-05T23:21:55.807Z,20.40
2023-04-05T23:24:22.905Z,19.35
2023-04-05T23:26:50.110Z,18.45
2023-04-05T23:29:18.711Z,16.15
2023-04-05T23:31:46.097Z,18.02
2023-04-05T23:34:13.176Z,18.80
2023-04-05T23:36:40.524Z,19.52
2023-04-05T23:39:07.943Z,15.18
2023-04-05T23:41:35.058Z,13.27
2023-04-05T23:44:02.092Z,14.70
2023-04-05T23:46:29.118Z,15.57
2023-04-05T23:48:56.349Z,17.33
2023-04-05T23:51:23.671Z,16.63
2023-04-05T23:53:51.612Z,15.75
2023-04-05T23:56:18.719Z,13.15
2023-04-05T23:58:46.144Z,18.42
